AirNav   ATP
 
 485 users online  

UT15 Flying Cal Ute Rancheros Airport
Paragonah, Utah, USA

GOING TO PARAGONAH?


FAA INFORMATION EFFECTIVE 12 OCTOBER 2017

Location

FAA Identifier: UT15
Lat/Long: 37-55-42.9060N / 112-46-07.7960W
37-55.715100N / 112-46.129933W
37.9285850 / -112.7688322
(estimated)
Elevation: 5764 ft. / 1757 m (estimated)
Variation: 14E (1990)
From city: 3 miles N of PARAGONAH, UT
Time zone: UTC -6 (UTC -7 during Standard Time)
Zip code: 84761

Airport Operations

Airport use: Private use. Permission required prior to landing
Activation date: 01/1992
Control tower: no
ARTCC: SALT LAKE CITY CENTER
FSS: CEDAR CITY FLIGHT SERVICE STATION
Attendance: UNATNDD
Wind indicator: yes
Segmented circle: no

Airport Communications

WX AWOS-3 at U55 (19 nm E): 133.125 (435-676-8784)
WX AWOS-3 at U52 (19 nm N): 119.925 (435-438-5829)

Nearby radio navigation aids

VOR radial/distance  VOR name  Freq  Var
EHKr043/16.5ENOCH VOR/DME117.3016E
BCEr288/26.3BRYCE CANYON VORTAC112.8015E
MLFr140/28.4MILFORD VORTAC112.1016E

Airport Services

Runway Information

Runway E/W

Dimensions: 5280 x 80 ft. / 1609 x 24 m
Surface: gravel
RUNWAY E  RUNWAY W
Traffic pattern: leftleft

Airport Ownership and Management from official FAA records

Ownership: Privately-owned
Owner: RICHARD TANGRAY
3114 E. CHARLESTON BLVD
LAS VEGAS, NV 89104
Phone 702-457-2622
Manager: R.L. TANGRAY
3114 E. CHARLESTON BLVD
LAS VEGAS, NV 89104
Phone 702-457-2622

Airport Operational Statistics

Aircraft based on the field: 1
Single engine airplanes: 1
    

Instrument Procedures

There are no published instrument procedures at UT15.

Some nearby airports with instrument procedures:

U55 - Panguitch Municipal Airport (19 nm E)
U52 - Beaver Municipal Airport (19 nm N)
KCDC - Cedar City Regional Airport (21 nm SW)
KMLF - Milford Municipal Airport/Ben and Judy Briscoe Field (32 nm N)
KBCE - Bryce Canyon Airport (32 nm SE)
 
Loc | Ops | Rwys | IFR | FBO | Links
Com | Nav | Svcs | Stats | Notes


 
Area around UT15 (Flying Cal Ute Rancheros Airport)
 
Road maps at: MapQuest Bing Google
 
Aerial photo
No photo
 
Sectional chart

 
Airport distance calculator
Flying to Flying Cal Ute Rancheros Airport? Find the distance to fly.

From to UT15

Sunrise and sunset
Times for 18-Oct-2017
 Local
(UTC-6)
 Zulu
(UTC)
Morning civil twilight07:1713:17
Sunrise07:4413:44
Sunset18:4900:49
Evening civil twilight19:1601:16

Current date and time
Zulu (UTC)  18-Oct-2017 10:53:57
Local (UTC-6)  18-Oct-2017 04:53:57
 
METAR
KCDC 
21nm SW 
180953Z AUTO 21005KT 10SM CLR 08/M10 A3017 RMK AO2 SLP158 T00831100
KMLF 
32nm N 
180952Z AUTO 15004KT 10SM CLR 08/M06 A3015 RMK AO2 SLP162 T00781056
KBCE 
32nm SE 
180953Z AUTO 25005KT 10SM FEW100 02/M07 A3030 RMK AO2 SLP171 T00221072
TAF
KCDC 
21nm SW 
180533Z 1806/1906 16008KT P6SM SCT250 FM180900 VRB05KT P6SM SCT250 FM181700 23011KT P6SM BKN250 FM190300 16006KT P6SM BKN180
NOTAMs
Click for the latest NOTAMs
NOTAMs are issued by the DoD/FAA and will open in a separate window not controlled by AirNav.

 

 
 

Would you like to see your business listed on this page?

 If your business provides an interesting product or service to pilots, flight crews, aircraft, or users of the Flying Cal Ute Rancheros Airport, you should consider listing it here.  To start the listing process, click on the button below
 
Add a business
 

Other Pages about Flying Cal Ute Rancheros Airport

Update a link
 
Copyright © AirNav, LLC. All rights reserved. Privacy Policy  Contact